Hulmeville, Pennsylvania
Current Conditions -  °F | °C
As of 9:54 PM on Wednesday 22 Oct 2014 (Local Time) from KPNE Reporting Station
Light Rain Light Rain  
Wind Chill: 54°   Ceiling: 3900
Heat Index: 54°   Visibility: 6mi
Dew Point: 48°   Wind: 14mph
Humidity: 80%   Direction: 330°NNW
Pressure: 29.83"   Gusts: NA
Location:  40.1816°N, 74.9144°W
Report Text: KPNE 230154Z AUTO 33012KT 6SM -RA FEW030 OVC039 12/09 A2983 RMK AO2 SLP100 P0003 T01220089 TSNO $
Loading
Personal Weather Stations






























Interactive Weather Map
Tropical Storm Tracking
New forecast layout! Learn more

10-Day Weather Forecast

Advertisements
Track Severe Weather on mobile